createdAt,value
2017-11-27T00:06:09.446Z,88.55
2017-11-27T00:08:38.509Z,88.51
2017-11-27T00:11:05.657Z,88.30
2017-11-27T00:13:33.666Z,88.29
2017-11-27T00:16:01.413Z,88.09
2017-11-27T00:18:29.816Z,88.57
2017-11-27T00:21:00.615Z,88.48
2017-11-27T00:23:27.915Z,88.25
2017-11-27T00:25:55.119Z,88.03
2017-11-27T00:28:23.270Z,88.37
2017-11-27T00:30:51.432Z,88.01
2017-11-27T00:33:19.228Z,87.91
2017-11-27T00:35:48.581Z,88.07
2017-11-27T00:38:15.719Z,87.70
2017-11-27T00:40:42.757Z,87.79
2017-11-27T00:43:10.405Z,88.23
2017-11-27T00:45:37.779Z,87.63
2017-11-27T00:48:05.574Z,87.79
2017-11-27T00:50:33.187Z,87.72
2017-11-27T00:53:01.513Z,87.63
2017-11-27T00:55:28.460Z,87.78
2017-11-27T00:57:57.041Z,87.78
2017-11-27T01:00:24.857Z,88.33
2017-11-27T01:02:52.667Z,88.08
2017-11-27T01:05:19.531Z,89.25
2017-11-27T01:07:46.388Z,88.92
2017-11-27T01:10:13.257Z,89.25
2017-11-27T01:12:40.139Z,89.46
2017-11-27T01:15:07.781Z,89.36
2017-11-27T01:17:34.629Z,89.53
2017-11-27T01:20:01.476Z,89.25
2017-11-27T01:22:28.310Z,89.19
2017-11-27T01:24:55.925Z,89.45
2017-11-27T01:27:22.795Z,89.61
2017-11-27T01:29:49.684Z,89.47
2017-11-27T01:32:16.572Z,89.32
2017-11-27T01:34:43.467Z,89.31
2017-11-27T01:37:10.333Z,88.65
2017-11-27T01:39:37.204Z,88.95
2017-11-27T01:42:04.102Z,89.58
2017-11-27T01:44:30.985Z,89.19
2017-11-27T01:46:57.847Z,89.52
2017-11-27T01:49:24.720Z,89.31
2017-11-27T01:51:51.568Z,88.85
2017-11-27T01:54:18.443Z,89.31
2017-11-27T01:56:45.351Z,89.30
2017-11-27T01:59:12.249Z,89.32
2017-11-27T02:01:39.883Z,89.05
2017-11-27T02:04:06.809Z,88.97
2017-11-27T02:06:33.674Z,88.98
2017-11-27T02:09:00.569Z,89.30
2017-11-27T02:11:27.454Z,89.15
2017-11-27T02:13:54.325Z,89.07
2017-11-27T02:16:21.953Z,89.64
2017-11-27T02:18:48.794Z,89.33
2017-11-27T02:21:15.676Z,88.86
2017-11-27T02:23:42.572Z,88.96
2017-11-27T02:26:09.488Z,89.06
2017-11-27T02:28:36.388Z,89.43
2017-11-27T02:31:03.300Z,88.98
2017-11-27T02:33:30.154Z,89.31
2017-11-27T02:35:57.746Z,88.95
2017-11-27T02:38:24.616Z,89.08
2017-11-27T02:40:51.528Z,88.97
2017-11-27T02:43:18.421Z,89.43
2017-11-27T02:45:46.070Z,89.57
2017-11-27T02:48:13.734Z,89.23
2017-11-27T02:50:40.625Z,89.37
2017-11-27T02:53:07.505Z,89.56
2017-11-27T02:55:35.145Z,89.95
2017-11-27T02:58:02.051Z,89.80
2017-11-27T03:00:29.754Z,91.06
2017-11-27T03:02:57.353Z,90.54
2017-11-27T03:05:24.224Z,90.96
2017-11-27T03:07:51.130Z,90.39
2017-11-27T03:10:18.845Z,90.43
2017-11-27T03:12:45.736Z,90.33
2017-11-27T03:15:12.671Z,90.01
2017-11-27T03:17:39.561Z,90.60
2017-11-27T03:20:06.441Z,90.82
2017-11-27T03:22:34.035Z,90.87
2017-11-27T03:25:01.617Z,90.58
2017-11-27T03:27:29.233Z,90.90
2017-11-27T03:29:56.144Z,90.72
2017-11-27T03:32:23.766Z,90.26
2017-11-27T03:34:50.640Z,90.46
2017-11-27T03:37:17.526Z,90.76
2017-11-27T03:39:44.437Z,90.65
2017-11-27T03:42:11.363Z,90.52
2017-11-27T03:44:38.221Z,90.22
2017-11-27T03:47:05.075Z,90.58
2017-11-27T03:49:31.932Z,90.52
2017-11-27T03:51:58.776Z,90.08
2017-11-27T03:54:25.696Z,89.88
2017-11-27T03:56:52.556Z,89.98
2017-11-27T03:59:20.192Z,89.79
2017-11-27T04:01:47.105Z,89.73
2017-11-27T04:04:13.972Z,89.85
2017-11-27T04:06:40.816Z,90.09
2017-11-27T04:09:08.430Z,89.79
2017-11-27T04:11:35.367Z,89.81
2017-11-27T04:14:02.234Z,89.62
2017-11-27T04:16:29.193Z,89.46
2017-11-27T04:18:56.806Z,89.27
2017-11-27T04:21:23.734Z,89.13
2017-11-27T04:23:51.338Z,89.19
2017-11-27T04:26:18.252Z,89.24
2017-11-27T04:28:45.140Z,89.30
2017-11-27T04:31:11.984Z,89.01
2017-11-27T04:33:39.654Z,89.15
2017-11-27T04:36:07.342Z,89.04
2017-11-27T04:38:34.960Z,88.72
2017-11-27T04:41:01.838Z,88.88
2017-11-27T04:43:28.781Z,88.89
2017-11-27T04:45:55.713Z,88.51
2017-11-27T04:48:23.381Z,88.28
2017-11-27T04:50:51.037Z,88.66
2017-11-27T04:53:17.878Z,88.52
2017-11-27T04:55:44.750Z,88.20
2017-11-27T04:58:11.599Z,88.39
2017-11-27T05:00:38.590Z,88.59
2017-11-27T05:03:05.429Z,88.37
2017-11-27T05:05:32.323Z,88.65
2017-11-27T05:07:59.242Z,88.44
2017-11-27T05:10:26.116Z,88.36
2017-11-27T05:12:53.021Z,88.76
2017-11-27T05:15:19.936Z,88.83
2017-11-27T05:17:47.551Z,88.37
2017-11-27T05:20:14.431Z,88.56
2017-11-27T05:22:42.017Z,88.60
2017-11-27T05:25:09.603Z,88.32
2017-11-27T05:27:36.499Z,88.20
2017-11-27T05:30:03.459Z,88.26
2017-11-27T05:32:30.308Z,88.38
2017-11-27T05:34:57.195Z,87.84
2017-11-27T05:37:24.056Z,87.56
2017-11-27T05:39:50.901Z,87.74
2017-11-27T05:42:17.727Z,87.75
2017-11-27T05:44:45.374Z,87.66
2017-11-27T05:47:12.227Z,87.78
2017-11-27T05:49:39.097Z,88.14
2017-11-27T05:52:05.925Z,87.63
2017-11-27T05:54:32.929Z,87.44
2017-11-27T05:56:59.805Z,87.27
2017-11-27T05:59:27.392Z,87.78
2017-11-27T06:01:54.261Z,87.69
2017-11-27T06:04:21.831Z,87.57
2017-11-27T06:06:49.412Z,86.90
2017-11-27T06:09:17.024Z,86.71
2017-11-27T06:11:43.916Z,86.34
2017-11-27T06:14:10.774Z,86.71
2017-11-27T06:16:37.682Z,86.54
2017-11-27T06:19:04.549Z,86.72
2017-11-27T06:21:31.400Z,86.68
2017-11-27T06:23:58.955Z,86.89
2017-11-27T06:26:25.767Z,86.49
2017-11-27T06:28:52.610Z,86.73
2017-11-27T06:31:19.448Z,86.56
2017-11-27T06:33:47.056Z,86.86
2017-11-27T06:36:13.940Z,86.96
2017-11-27T06:38:40.834Z,87.00
2017-11-27T06:41:07.682Z,86.96
2017-11-27T06:43:34.580Z,86.61
2017-11-27T06:46:02.185Z,86.83
2017-11-27T06:48:29.089Z,87.15
2017-11-27T06:50:56.011Z,87.46
2017-11-27T06:53:22.884Z,87.30
2017-11-27T06:55:49.792Z,87.01
2017-11-27T06:58:16.673Z,87.09
2017-11-27T07:00:43.531Z,87.35
2017-11-27T07:03:11.088Z,87.47
2017-11-27T07:05:37.954Z,87.74
2017-11-27T07:08:05.569Z,88.06
2017-11-27T07:10:32.398Z,88.34
2017-11-27T07:12:59.324Z,88.43
2017-11-27T07:15:26.211Z,88.63
2017-11-27T07:17:53.087Z,88.75
2017-11-27T07:20:19.997Z,88.96
2017-11-27T07:22:47.596Z,89.27
2017-11-27T07:25:14.436Z,89.78
2017-11-27T07:27:41.329Z,89.62
2017-11-27T07:30:08.205Z,89.51
2017-11-27T07:32:35.042Z,89.87
2017-11-27T07:35:01.909Z,89.56
2017-11-27T07:37:34.785Z,90.01
2017-11-27T07:40:01.662Z,90.02
2017-11-27T07:42:28.522Z,90.15
2017-11-27T07:44:55.366Z,90.55
2017-11-27T07:47:22.205Z,90.58
2017-11-27T07:49:49.053Z,90.54
2017-11-27T07:52:16.670Z,91.26
2017-11-27T07:54:43.551Z,90.55
2017-11-27T07:57:10.406Z,90.73
2017-11-27T07:59:37.281Z,90.67
2017-11-27T08:02:04.159Z,90.73
2017-11-27T08:04:31.321Z,91.35
2017-11-27T08:06:58.183Z,91.27
2017-11-27T08:09:25.019Z,91.33
2017-11-27T08:11:51.921Z,91.02
2017-11-27T08:14:18.765Z,90.95
2017-11-27T08:16:45.635Z,90.78
2017-11-27T08:19:12.485Z,91.29
2017-11-27T08:21:39.800Z,90.80
2017-11-27T08:24:06.680Z,90.52
2017-11-27T08:26:33.540Z,91.31
2017-11-27T08:29:01.142Z,91.18
2017-11-27T08:31:28.032Z,90.81
2017-11-27T08:33:54.959Z,91.05
2017-11-27T08:36:21.825Z,91.64
2017-11-27T08:38:48.679Z,91.08
2017-11-27T08:41:15.537Z,91.76
2017-11-27T08:43:42.413Z,91.44
2017-11-27T08:46:09.286Z,91.23
2017-11-27T08:48:36.140Z,91.73
2017-11-27T08:51:03.025Z,92.18
2017-11-27T08:53:30.034Z,91.79
2017-11-27T08:55:56.955Z,92.28
2017-11-27T08:58:24.604Z,92.10
2017-11-27T09:00:51.492Z,92.33
2017-11-27T09:03:18.392Z,92.40
2017-11-27T09:05:45.274Z,92.67
2017-11-27T09:08:12.116Z,92.67
2017-11-27T09:10:39.031Z,93.24
2017-11-27T09:13:05.930Z,92.76
2017-11-27T09:15:32.837Z,93.01
2017-11-27T09:17:59.740Z,93.81
2017-11-27T09:20:26.844Z,93.51
2017-11-27T09:22:53.751Z,93.67
2017-11-27T09:25:20.674Z,93.71
2017-11-27T09:27:47.598Z,93.94
2017-11-27T09:30:15.216Z,94.27
2017-11-27T09:32:42.211Z,94.20
2017-11-27T09:35:09.074Z,94.12
2017-11-27T09:37:35.964Z,94.18
2017-11-27T09:40:02.882Z,94.33
2017-11-27T09:42:29.765Z,94.50
2017-11-27T09:44:56.998Z,94.37
2017-11-27T09:47:23.865Z,94.79
2017-11-27T09:49:51.476Z,94.79
2017-11-27T09:52:18.391Z,94.61
2017-11-27T09:54:45.229Z,94.77
2017-11-27T09:57:12.869Z,94.84
2017-11-27T09:59:39.740Z,94.55
2017-11-27T10:02:07.570Z,95.06
2017-11-27T10:04:35.193Z,95.03
2017-11-27T10:07:02.101Z,95.12
2017-11-27T10:09:29.717Z,95.05
2017-11-27T10:11:56.599Z,95.31
2017-11-27T10:14:23.482Z,95.30
2017-11-27T10:16:50.317Z,95.23
2017-11-27T10:19:17.214Z,95.06
2017-11-27T10:21:44.135Z,95.40
2017-11-27T10:24:11.029Z,95.52
2017-11-27T10:26:37.921Z,95.47
2017-11-27T10:29:04.792Z,95.84
2017-11-27T10:31:31.655Z,95.92
2017-11-27T10:33:58.530Z,96.23
2017-11-27T10:36:25.425Z,95.94
2017-11-27T10:38:52.498Z,95.97
2017-11-27T10:41:21.212Z,96.12
2017-11-27T10:43:48.181Z,96.15
2017-11-27T10:46:15.826Z,96.07
2017-11-27T10:48:43.216Z,96.00
2017-11-27T10:51:10.927Z,95.87
2017-11-27T10:53:37.849Z,95.99
2017-11-27T10:56:04.773Z,95.97
2017-11-27T10:58:31.636Z,96.03
2017-11-27T11:01:04.449Z,95.87
2017-11-27T11:03:31.330Z,95.84
2017-11-27T11:05:58.249Z,95.96
2017-11-27T11:08:25.107Z,95.97
2017-11-27T11:10:53.018Z,95.78
2017-11-27T11:13:19.894Z,96.11
2017-11-27T11:15:46.757Z,96.10
2017-11-27T11:18:13.645Z,96.25
2017-11-27T11:20:40.501Z,96.41
2017-11-27T11:23:07.321Z,95.93
2017-11-27T11:25:34.205Z,96.09
2017-11-27T11:28:01.070Z,95.92
2017-11-27T11:30:27.947Z,95.85
2017-11-27T11:32:54.788Z,96.32
2017-11-27T11:35:21.635Z,95.89
2017-11-27T11:37:48.491Z,96.09
2017-11-27T11:40:15.363Z,95.99
2017-11-27T11:42:42.217Z,96.05
2017-11-27T11:45:09.885Z,96.32
2017-11-27T11:47:36.733Z,95.91
2017-11-27T11:50:03.583Z,95.95
2017-11-27T11:52:31.214Z,96.10
2017-11-27T11:54:58.117Z,95.96
2017-11-27T11:57:25.776Z,95.91
2017-11-27T11:59:52.643Z,96.33
2017-11-27T12:02:19.540Z,96.30
2017-11-27T12:04:46.435Z,96.45
2017-11-27T12:07:13.923Z,96.57
2017-11-27T12:09:40.817Z,96.57
2017-11-27T12:12:08.388Z,96.47
2017-11-27T12:14:35.245Z,96.70
2017-11-27T12:17:02.101Z,96.61
2017-11-27T12:19:29.159Z,96.69
2017-11-27T12:21:56.638Z,96.69
2017-11-27T12:24:23.662Z,96.83
2017-11-27T12:26:50.913Z,96.79
2017-11-27T12:29:18.026Z,96.77
2017-11-27T12:31:45.486Z,97.30
2017-11-27T12:34:13.201Z,96.96
2017-11-27T12:36:40.716Z,96.96
2017-11-27T12:39:07.728Z,96.65
2017-11-27T12:41:34.800Z,97.20
2017-11-27T12:44:01.710Z,97.01
2017-11-27T12:46:28.636Z,97.04
2017-11-27T12:48:55.603Z,96.98
2017-11-27T12:51:22.975Z,97.09
2017-11-27T12:53:49.932Z,96.99
2017-11-27T12:56:17.550Z,97.02
2017-11-27T12:58:44.462Z,97.28
2017-11-27T13:01:11.405Z,97.15
2017-11-27T13:03:38.408Z,97.14
2017-11-27T13:06:05.292Z,97.19
2017-11-27T13:08:32.903Z,97.28
2017-11-27T13:10:59.922Z,97.30
2017-11-27T13:13:26.901Z,97.25
2017-11-27T13:15:54.555Z,97.32
2017-11-27T13:18:22.271Z,97.11
2017-11-27T13:20:49.171Z,97.18
2017-11-27T13:23:16.087Z,97.05
2017-11-27T13:25:43.716Z,97.32
2017-11-27T13:28:10.560Z,97.22
2017-11-27T13:30:37.431Z,97.13
2017-11-27T13:33:04.293Z,97.14
2017-11-27T13:35:31.188Z,96.49
2017-11-27T13:37:58.845Z,96.29
2017-11-27T13:40:25.734Z,96.50
2017-11-27T13:42:52.606Z,97.01
2017-11-27T13:45:20.241Z,97.12
2017-11-27T13:47:47.170Z,97.10
2017-11-27T13:50:14.068Z,97.17
2017-11-27T13:52:40.961Z,97.09
2017-11-27T13:55:07.802Z,97.35
2017-11-27T13:57:34.676Z,97.53
2017-11-27T14:00:01.573Z,97.39
2017-11-27T14:02:28.484Z,97.14
2017-11-27T14:04:55.381Z,97.43
2017-11-27T14:07:23.069Z,97.28
2017-11-27T14:09:49.943Z,97.47
2017-11-27T14:12:16.848Z,97.43
2017-11-27T14:14:43.720Z,97.05
2017-11-27T14:17:10.562Z,97.00
2017-11-27T14:19:37.422Z,97.14
2017-11-27T14:22:04.344Z,97.29
2017-11-27T14:24:32.013Z,97.46
2017-11-27T14:26:59.634Z,97.34
2017-11-27T14:29:26.554Z,97.16
2017-11-27T14:31:54.145Z,97.45
2017-11-27T14:34:21.747Z,97.63
2017-11-27T14:36:48.613Z,97.19
2017-11-27T14:39:15.555Z,97.43
2017-11-27T14:41:42.502Z,97.50
2017-11-27T14:44:10.201Z,97.46
2017-11-27T14:46:37.131Z,97.45
2017-11-27T14:49:04.060Z,97.42
2017-11-27T14:51:31.032Z,97.47
2017-11-27T14:53:58.175Z,97.28
2017-11-27T14:56:26.141Z,97.49
2017-11-27T14:58:53.075Z,97.34
2017-11-27T15:01:19.970Z,97.61
2017-11-27T15:03:46.919Z,97.52
2017-11-27T15:06:13.906Z,97.60
2017-11-27T15:08:41.784Z,97.57
2017-11-27T15:11:08.754Z,97.58
2017-11-27T15:13:35.645Z,97.60
2017-11-27T15:16:03.293Z,97.37
2017-11-27T15:18:30.868Z,97.55
2017-11-27T15:20:57.791Z,97.55
2017-11-27T15:23:24.786Z,97.45
2017-11-27T15:25:52.491Z,97.40
2017-11-27T15:28:20.201Z,97.60
2017-11-27T15:30:47.255Z,97.71
2017-11-27T15:33:14.249Z,97.78
2017-11-27T15:35:41.223Z,98.04
2017-11-27T15:38:08.178Z,98.06
2017-11-27T15:40:35.384Z,97.92
2017-11-27T15:43:03.114Z,98.33
2017-11-27T15:45:30.184Z,98.10
2017-11-27T15:47:57.158Z,98.01
2017-11-27T15:50:24.156Z,98.18
2017-11-27T15:52:51.207Z,98.24
2017-11-27T15:55:18.957Z,98.27
2017-11-27T15:57:46.244Z,98.24
2017-11-27T16:00:13.645Z,98.36
2017-11-27T16:02:41.347Z,98.41
2017-11-27T16:05:08.520Z,98.55
2017-11-27T16:07:35.483Z,98.68
2017-11-27T16:10:02.559Z,98.49
2017-11-27T16:12:30.289Z,98.51
2017-11-27T16:14:57.322Z,98.48
2017-11-27T16:17:24.324Z,98.44
2017-11-27T16:19:52.033Z,98.40
2017-11-27T16:22:19.150Z,98.50
2017-11-27T16:24:46.178Z,98.86
2017-11-27T16:27:13.175Z,98.61
2017-11-27T16:29:40.132Z,98.63
2017-11-27T16:32:07.085Z,98.44
2017-11-27T16:34:34.065Z,97.95
2017-11-27T16:37:01.057Z,98.13
2017-11-27T16:39:28.777Z,98.16
2017-11-27T16:41:55.735Z,98.14
2017-11-27T16:44:22.716Z,97.89
2017-11-27T16:46:50.377Z,97.69
2017-11-27T16:49:17.331Z,98.00
2017-11-27T16:51:44.308Z,97.82
2017-11-27T16:54:11.305Z,97.83
2017-11-27T16:56:38.277Z,97.74
2017-11-27T16:59:05.210Z,97.64
2017-11-27T17:01:32.215Z,97.61
2017-11-27T17:03:59.173Z,97.79
2017-11-27T17:06:26.130Z,97.78
2017-11-27T17:08:53.063Z,97.69
2017-11-27T17:11:19.975Z,98.02
2017-11-27T17:13:46.893Z,98.00
2017-11-27T17:16:13.822Z,98.42
2017-11-27T17:18:41.476Z,98.24
2017-11-27T17:21:08.409Z,98.45
2017-11-27T17:23:35.358Z,98.47
2017-11-27T17:26:02.291Z,98.43
2017-11-27T17:28:30.120Z,98.48
2017-11-27T17:30:57.073Z,98.25
2017-11-27T17:33:25.676Z,98.26
2017-11-27T17:35:52.672Z,98.21
2017-11-27T17:38:19.690Z,97.88
2017-11-27T17:40:46.725Z,98.00
2017-11-27T17:43:14.353Z,97.71
2017-11-27T17:45:42.032Z,97.85
2017-11-27T17:48:08.999Z,98.03
2017-11-27T17:50:35.949Z,98.28
2017-11-27T17:53:02.957Z,97.84
2017-11-27T17:55:29.977Z,97.77
2017-11-27T17:57:56.870Z,97.88
2017-11-27T18:00:25.193Z,97.65
2017-11-27T18:02:52.938Z,97.58
2017-11-27T18:05:19.891Z,97.49
2017-11-27T18:07:47.394Z,97.87
2017-11-27T18:10:14.405Z,97.75
2017-11-27T18:12:41.361Z,97.72
2017-11-27T18:15:09.028Z,97.72
2017-11-27T18:17:36.052Z,97.77
2017-11-27T18:20:03.064Z,97.72
2017-11-27T18:22:30.760Z,97.62
2017-11-27T18:24:58.508Z,97.69
2017-11-27T18:27:26.544Z,97.74
2017-11-27T18:29:53.563Z,97.39
2017-11-27T18:32:20.511Z,97.40
2017-11-27T18:34:47.486Z,97.24
2017-11-27T18:37:14.449Z,97.36
2017-11-27T18:39:41.464Z,97.49
2017-11-27T18:42:08.461Z,97.36
2017-11-27T18:44:35.522Z,97.65
2017-11-27T18:47:02.745Z,97.58
2017-11-27T18:49:30.806Z,98.01
2017-11-27T18:51:57.886Z,98.15
2017-11-27T18:54:24.966Z,98.25
2017-11-27T18:56:54.311Z,98.68
2017-11-27T18:59:22.739Z,98.78
2017-11-27T19:01:49.763Z,98.75
2017-11-27T19:04:18.220Z,99.15
2017-11-27T19:06:46.400Z,99.63
2017-11-27T19:09:13.660Z,98.66
2017-11-27T19:11:40.982Z,98.85
2017-11-27T19:14:08.017Z,99.10
2017-11-27T19:16:34.948Z,99.23
2017-11-27T19:19:01.886Z,99.01
2017-11-27T19:21:28.813Z,99.38
2017-11-27T19:23:55.745Z,99.22
2017-11-27T19:26:23.378Z,98.57
2017-11-27T19:28:52.368Z,98.59
2017-11-27T19:31:19.456Z,98.78
2017-11-27T19:33:47.557Z,98.90
2017-11-27T19:36:14.674Z,98.72
2017-11-27T19:38:41.925Z,98.96
2017-11-27T19:41:08.883Z,98.65
2017-11-27T19:43:36.875Z,98.51
2017-11-27T19:46:04.242Z,98.38
2017-11-27T19:48:31.411Z,98.09
2017-11-27T19:50:58.974Z,98.32
2017-11-27T19:53:26.097Z,98.63
2017-11-27T19:55:53.059Z,98.37
2017-11-27T19:58:20.757Z,98.87
2017-11-27T20:00:47.724Z,98.97
2017-11-27T20:03:15.517Z,98.52
2017-11-27T20:05:42.592Z,98.59
2017-11-27T20:08:09.930Z,99.12
2017-11-27T20:10:37.007Z,98.61
2017-11-27T20:13:05.254Z,96.35
2017-11-27T20:15:33.678Z,96.99
2017-11-27T20:18:00.744Z,97.12
2017-11-27T20:20:28.509Z,97.02
2017-11-27T20:22:56.650Z,97.00
2017-11-27T20:25:23.738Z,96.84
2017-11-27T20:27:51.843Z,96.62
2017-11-27T20:30:19.405Z,97.04
2017-11-27T20:32:46.416Z,97.17
2017-11-27T20:35:13.469Z,97.21
2017-11-27T20:37:40.486Z,97.45
2017-11-27T20:40:07.466Z,97.55
2017-11-27T20:42:35.088Z,97.61
2017-11-27T20:45:03.397Z,97.74
2017-11-27T20:47:31.176Z,98.60
2017-11-27T20:49:58.956Z,98.31
2017-11-27T20:52:25.939Z,98.49
2017-11-27T20:54:53.729Z,98.25
2017-11-27T20:57:21.114Z,98.45
2017-11-27T20:59:48.151Z,98.36
2017-11-27T21:02:15.874Z,98.40
2017-11-27T21:04:42.940Z,98.19
2017-11-27T21:07:09.876Z,98.16
2017-11-27T21:09:37.564Z,97.90
2017-11-27T21:12:04.538Z,97.93
2017-11-27T21:14:31.543Z,97.95
2017-11-27T21:16:58.784Z,97.80
2017-11-27T21:19:25.866Z,97.01
2017-11-27T21:21:52.868Z,97.26
2017-11-27T21:24:20.589Z,97.30
2017-11-27T21:26:47.538Z,97.31
2017-11-27T21:29:14.481Z,97.43
2017-11-27T21:31:42.350Z,97.74
2017-11-27T21:34:10.314Z,96.95
2017-11-27T21:36:37.745Z,97.18
2017-11-27T21:39:05.452Z,96.84
2017-11-27T21:41:32.552Z,95.72
2017-11-27T21:43:59.514Z,95.09
2017-11-27T21:46:26.446Z,95.19
2017-11-27T21:48:53.402Z,95.51
2017-11-27T21:51:20.397Z,95.85
2017-11-27T21:53:47.313Z,95.90
2017-11-27T21:56:14.275Z,95.77
2017-11-27T21:58:41.921Z,95.39
2017-11-27T22:01:08.895Z,95.97
2017-11-27T22:03:35.927Z,95.62
2017-11-27T22:06:03.412Z,96.17
2017-11-27T22:08:30.306Z,96.13
2017-11-27T22:10:58.901Z,96.53
2017-11-27T22:13:27.501Z,96.72
2017-11-27T22:15:57.384Z,96.36
2017-11-27T22:18:27.678Z,96.23
2017-11-27T22:20:57.709Z,96.19
2017-11-27T22:36:28.841Z,97.00
2017-11-27T22:38:59.005Z,96.90
2017-11-27T22:41:26.414Z,96.78
2017-11-27T22:43:53.644Z,97.07
2017-11-27T22:46:24.033Z,97.36
2017-11-27T22:48:52.004Z,97.15
2017-11-27T22:51:20.385Z,97.39
2017-11-27T22:53:51.312Z,97.13
2017-11-27T22:56:21.578Z,96.71
2017-11-27T22:58:52.282Z,96.93
2017-11-27T23:01:19.391Z,96.54
2017-11-27T23:03:46.955Z,96.70
2017-11-27T23:06:16.333Z,96.69
2017-11-27T23:08:44.261Z,97.49
2017-11-27T23:11:11.524Z,96.99
2017-11-27T23:13:38.460Z,96.50
2017-11-27T23:16:05.357Z,96.60
2017-11-27T23:18:33.030Z,96.29
2017-11-27T23:21:00.018Z,96.52
2017-11-27T23:23:26.923Z,96.22
2017-11-27T23:25:53.828Z,96.25
2017-11-27T23:28:20.670Z,96.36
2017-11-27T23:30:48.315Z,96.34
2017-11-27T23:33:15.236Z,96.29
2017-11-27T23:35:42.133Z,96.02
2017-11-27T23:38:09.074Z,96.31
2017-11-27T23:40:35.940Z,96.59
2017-11-27T23:43:02.868Z,96.30
2017-11-27T23:45:29.768Z,96.12
2017-11-27T23:47:56.709Z,96.19
2017-11-27T23:50:23.592Z,96.39
2017-11-27T23:52:50.527Z,96.15
2017-11-27T23:55:17.421Z,96.18
2017-11-27T23:57:44.380Z,96.45
